sensor_id;sensor_type;location;lat;lon;timestamp;P1;durP1;ratioP1;P2;durP2;ratioP2
69240;SDS011;56352;55.750;13.198;2023-05-10T00:00:45;3.50;;;2.35;;
69240;SDS011;56352;55.750;13.198;2023-05-10T00:03:12;5.03;;;2.50;;
69240;SDS011;56352;55.750;13.198;2023-05-10T00:05:39;4.95;;;2.28;;
69240;SDS011;56352;55.750;13.198;2023-05-10T00:08:05;6.28;;;2.42;;
69240;SDS011;56352;55.750;13.198;2023-05-10T00:10:31;7.28;;;3.38;;
69240;SDS011;56352;55.750;13.198;2023-05-10T00:12:58;5.15;;;2.65;;
69240;SDS011;56352;55.750;13.198;2023-05-10T00:15:27;7.60;;;2.97;;
69240;SDS011;56352;55.750;13.198;2023-05-10T00:17:54;3.67;;;2.80;;
69240;SDS011;56352;55.750;13.198;2023-05-10T00:20:21;3.28;;;2.70;;
69240;SDS011;56352;55.750;13.198;2023-05-10T00:22:48;4.65;;;2.70;;
69240;SDS011;56352;55.750;13.198;2023-05-10T00:25:14;3.45;;;2.28;;
69240;SDS011;56352;55.750;13.198;2023-05-10T00:27:41;4.85;;;2.20;;
69240;SDS011;56352;55.750;13.198;2023-05-10T00:30:07;6.53;;;2.80;;
69240;SDS011;56352;55.750;13.198;2023-05-10T00:32:34;5.47;;;2.70;;
69240;SDS011;56352;55.750;13.198;2023-05-10T00:35:00;4.95;;;2.28;;
69240;SDS011;56352;55.750;13.198;2023-05-10T00:37:27;5.95;;;2.50;;
69240;SDS011;56352;55.750;13.198;2023-05-10T00:39:53;4.22;;;2.50;;
69240;SDS011;56352;55.750;13.198;2023-05-10T00:42:20;4.22;;;2.85;;
69240;SDS011;56352;55.750;13.198;2023-05-10T00:44:47;4.00;;;2.33;;
69240;SDS011;56352;55.750;13.198;2023-05-10T00:47:13;5.50;;;2.67;;
69240;SDS011;56352;55.750;13.198;2023-05-10T00:49:40;4.57;;;2.47;;
69240;SDS011;56352;55.750;13.198;2023-05-10T00:52:08;3.53;;;2.50;;
69240;SDS011;56352;55.750;13.198;2023-05-10T00:54:35;5.40;;;2.65;;
69240;SDS011;56352;55.750;13.198;2023-05-10T00:57:01;6.47;;;2.95;;
69240;SDS011;56352;55.750;13.198;2023-05-10T00:59:28;2.75;;;2.40;;
69240;SDS011;56352;55.750;13.198;2023-05-10T01:01:55;4.80;;;2.85;;
69240;SDS011;56352;55.750;13.198;2023-05-10T01:04:24;3.85;;;2.50;;
69240;SDS011;56352;55.750;13.198;2023-05-10T01:06:54;3.55;;;2.33;;
69240;SDS011;56352;55.750;13.198;2023-05-10T01:09:21;4.28;;;2.60;;
69240;SDS011;56352;55.750;13.198;2023-05-10T01:11:47;6.38;;;2.63;;
69240;SDS011;56352;55.750;13.198;2023-05-10T01:14:14;3.08;;;2.33;;
69240;SDS011;56352;55.750;13.198;2023-05-10T01:16:43;5.23;;;2.83;;
69240;SDS011;56352;55.750;13.198;2023-05-10T01:19:17;4.50;;;2.58;;
69240;SDS011;56352;55.750;13.198;2023-05-10T01:34:42;2.53;;;2.00;;
69240;SDS011;56352;55.750;13.198;2023-05-10T01:37:15;5.43;;;2.60;;
69240;SDS011;56352;55.750;13.198;2023-05-10T01:39:48;5.30;;;2.80;;
69240;SDS011;56352;55.750;13.198;2023-05-10T01:42:17;5.10;;;2.30;;
69240;SDS011;56352;55.750;13.198;2023-05-10T01:47:18;4.88;;;2.60;;
69240;SDS011;56352;55.750;13.198;2023-05-10T01:52:14;4.18;;;2.70;;
69240;SDS011;56352;55.750;13.198;2023-05-10T01:54:43;4.47;;;2.85;;
69240;SDS011;56352;55.750;13.198;2023-05-10T01:57:11;6.15;;;2.67;;
69240;SDS011;56352;55.750;13.198;2023-05-10T01:59:40;4.15;;;2.28;;
69240;SDS011;56352;55.750;13.198;2023-05-10T02:02:09;4.22;;;2.47;;
69240;SDS011;56352;55.750;13.198;2023-05-10T02:04:38;3.90;;;2.50;;
69240;SDS011;56352;55.750;13.198;2023-05-10T02:07:06;4.63;;;2.40;;
69240;SDS011;56352;55.750;13.198;2023-05-10T02:09:33;3.58;;;2.42;;
69240;SDS011;56352;55.750;13.198;2023-05-10T02:12:01;4.57;;;2.25;;
69240;SDS011;56352;55.750;13.198;2023-05-10T02:14:29;5.25;;;2.50;;
69240;SDS011;56352;55.750;13.198;2023-05-10T02:16:56;3.33;;;2.33;;
69240;SDS011;56352;55.750;13.198;2023-05-10T02:19:25;4.05;;;2.70;;
69240;SDS011;56352;55.750;13.198;2023-05-10T02:21:52;4.47;;;2.50;;
69240;SDS011;56352;55.750;13.198;2023-05-10T02:24:19;4.00;;;2.60;;
69240;SDS011;56352;55.750;13.198;2023-05-10T02:26:46;3.60;;;2.40;;
69240;SDS011;56352;55.750;13.198;2023-05-10T02:29:14;4.85;;;2.47;;
69240;SDS011;56352;55.750;13.198;2023-05-10T02:31:44;6.25;;;2.40;;
69240;SDS011;56352;55.750;13.198;2023-05-10T02:34:16;4.75;;;2.63;;
69240;SDS011;56352;55.750;13.198;2023-05-10T02:36:44;4.28;;;2.88;;
69240;SDS011;56352;55.750;13.198;2023-05-10T02:39:11;3.33;;;2.45;;
69240;SDS011;56352;55.750;13.198;2023-05-10T02:41:40;6.10;;;2.70;;
69240;SDS011;56352;55.750;13.198;2023-05-10T02:44:08;7.63;;;2.97;;
69240;SDS011;56352;55.750;13.198;2023-05-10T02:46:36;3.72;;;2.63;;
69240;SDS011;56352;55.750;13.198;2023-05-10T02:49:03;5.75;;;2.70;;
69240;SDS011;56352;55.750;13.198;2023-05-10T02:51:31;3.83;;;2.60;;
69240;SDS011;56352;55.750;13.198;2023-05-10T02:53:58;5.75;;;3.03;;
69240;SDS011;56352;55.750;13.198;2023-05-10T02:56:34;3.28;;;2.63;;
69240;SDS011;56352;55.750;13.198;2023-05-10T02:59:02;5.07;;;2.92;;
69240;SDS011;56352;55.750;13.198;2023-05-10T03:01:28;3.92;;;2.85;;
69240;SDS011;56352;55.750;13.198;2023-05-10T03:03:55;4.80;;;2.63;;
69240;SDS011;56352;55.750;13.198;2023-05-10T03:06:22;3.97;;;2.60;;
69240;SDS011;56352;55.750;13.198;2023-05-10T03:08:49;4.43;;;2.80;;
69240;SDS011;56352;55.750;13.198;2023-05-10T03:14:07;7.25;;;2.92;;
69240;SDS011;56352;55.750;13.198;2023-05-10T03:16:40;5.05;;;2.58;;
69240;SDS011;56352;55.750;13.198;2023-05-10T03:19:17;5.18;;;2.83;;
69240;SDS011;56352;55.750;13.198;2023-05-10T03:21:46;5.40;;;3.40;;
69240;SDS011;56352;55.750;13.198;2023-05-10T03:24:13;4.18;;;2.55;;
69240;SDS011;56352;55.750;13.198;2023-05-10T03:26:42;5.70;;;2.47;;
69240;SDS011;56352;55.750;13.198;2023-05-10T03:29:10;4.13;;;2.83;;
69240;SDS011;56352;55.750;13.198;2023-05-10T03:31:37;8.98;;;3.20;;
69240;SDS011;56352;55.750;13.198;2023-05-10T03:34:04;4.97;;;2.55;;
69240;SDS011;56352;55.750;13.198;2023-05-10T03:36:30;5.22;;;2.50;;
69240;SDS011;56352;55.750;13.198;2023-05-10T03:38:58;4.57;;;2.60;;
69240;SDS011;56352;55.750;13.198;2023-05-10T03:41:24;8.43;;;3.13;;
69240;SDS011;56352;55.750;13.198;2023-05-10T03:43:51;3.75;;;2.72;;
69240;SDS011;56352;55.750;13.198;2023-05-10T03:46:18;5.45;;;3.00;;
69240;SDS011;56352;55.750;13.198;2023-05-10T03:48:44;3.85;;;2.63;;
69240;SDS011;56352;55.750;13.198;2023-05-10T03:51:11;4.95;;;2.55;;
69240;SDS011;56352;55.750;13.198;2023-05-10T03:53:38;4.70;;;2.50;;
69240;SDS011;56352;55.750;13.198;2023-05-10T03:56:05;4.45;;;2.88;;
69240;SDS011;56352;55.750;13.198;2023-05-10T03:58:31;3.80;;;2.45;;
69240;SDS011;56352;55.750;13.198;2023-05-10T04:00:58;5.25;;;2.67;;
69240;SDS011;56352;55.750;13.198;2023-05-10T04:03:24;5.38;;;3.00;;
69240;SDS011;56352;55.750;13.198;2023-05-10T04:05:59;6.35;;;2.90;;
69240;SDS011;56352;55.750;13.198;2023-05-10T04:08:28;10.07;;;3.42;;
69240;SDS011;56352;55.750;13.198;2023-05-10T04:11:04;4.43;;;2.85;;
69240;SDS011;56352;55.750;13.198;2023-05-10T04:13:31;4.72;;;2.58;;
69240;SDS011;56352;55.750;13.198;2023-05-10T04:15:58;5.38;;;2.78;;
69240;SDS011;56352;55.750;13.198;2023-05-10T04:18:24;6.90;;;3.00;;
69240;SDS011;56352;55.750;13.198;2023-05-10T04:20:51;5.30;;;2.72;;
69240;SDS011;56352;55.750;13.198;2023-05-10T04:23:18;5.05;;;2.95;;
69240;SDS011;56352;55.750;13.198;2023-05-10T04:25:45;4.97;;;2.65;;
69240;SDS011;56352;55.750;13.198;2023-05-10T04:28:12;4.57;;;3.05;;
69240;SDS011;56352;55.750;13.198;2023-05-10T04:30:38;4.28;;;2.75;;
69240;SDS011;56352;55.750;13.198;2023-05-10T04:33:06;6.15;;;3.13;;
69240;SDS011;56352;55.750;13.198;2023-05-10T04:35:32;4.72;;;2.78;;
69240;SDS011;56352;55.750;13.198;2023-05-10T04:38:00;3.80;;;3.15;;
69240;SDS011;56352;55.750;13.198;2023-05-10T04:40:27;5.05;;;3.05;;
69240;SDS011;56352;55.750;13.198;2023-05-10T04:42:53;4.05;;;2.50;;
69240;SDS011;56352;55.750;13.198;2023-05-10T04:45:20;4.75;;;2.90;;
69240;SDS011;56352;55.750;13.198;2023-05-10T04:47:47;4.00;;;3.00;;
69240;SDS011;56352;55.750;13.198;2023-05-10T04:50:14;4.45;;;2.90;;
69240;SDS011;56352;55.750;13.198;2023-05-10T04:52:41;5.25;;;2.95;;
69240;SDS011;56352;55.750;13.198;2023-05-10T04:55:07;6.57;;;3.10;;
69240;SDS011;56352;55.750;13.198;2023-05-10T04:57:35;6.75;;;3.15;;
69240;SDS011;56352;55.750;13.198;2023-05-10T05:00:02;3.70;;;2.90;;
69240;SDS011;56352;55.750;13.198;2023-05-10T05:02:29;4.97;;;3.03;;
69240;SDS011;56352;55.750;13.198;2023-05-10T05:04:59;6.25;;;3.10;;
69240;SDS011;56352;55.750;13.198;2023-05-10T05:07:25;3.45;;;2.72;;
69240;SDS011;56352;55.750;13.198;2023-05-10T05:09:52;7.03;;;3.13;;
69240;SDS011;56352;55.750;13.198;2023-05-10T05:12:18;8.02;;;3.22;;
69240;SDS011;56352;55.750;13.198;2023-05-10T05:14:45;4.45;;;3.17;;
69240;SDS011;56352;55.750;13.198;2023-05-10T05:17:12;6.32;;;2.80;;
69240;SDS011;56352;55.750;13.198;2023-05-10T05:19:40;6.80;;;3.13;;
69240;SDS011;56352;55.750;13.198;2023-05-10T05:22:07;4.72;;;3.00;;
69240;SDS011;56352;55.750;13.198;2023-05-10T05:24:34;7.00;;;2.67;;
69240;SDS011;56352;55.750;13.198;2023-05-10T05:27:01;4.32;;;3.10;;
69240;SDS011;56352;55.750;13.198;2023-05-10T05:29:28;4.75;;;3.03;;
69240;SDS011;56352;55.750;13.198;2023-05-10T05:31:55;7.18;;;3.10;;
69240;SDS011;56352;55.750;13.198;2023-05-10T05:34:23;6.15;;;3.20;;
69240;SDS011;56352;55.750;13.198;2023-05-10T05:36:50;3.65;;;2.90;;
69240;SDS011;56352;55.750;13.198;2023-05-10T05:39:17;5.25;;;3.20;;
69240;SDS011;56352;55.750;13.198;2023-05-10T05:41:44;5.78;;;2.85;;
69240;SDS011;56352;55.750;13.198;2023-05-10T05:44:10;5.80;;;2.88;;
69240;SDS011;56352;55.750;13.198;2023-05-10T05:46:37;4.68;;;2.83;;
69240;SDS011;56352;55.750;13.198;2023-05-10T05:49:04;6.32;;;3.15;;
69240;SDS011;56352;55.750;13.198;2023-05-10T05:51:31;4.15;;;3.35;;
69240;SDS011;56352;55.750;13.198;2023-05-10T05:53:57;5.53;;;3.22;;
69240;SDS011;56352;55.750;13.198;2023-05-10T05:56:24;5.80;;;2.92;;
69240;SDS011;56352;55.750;13.198;2023-05-10T05:58:51;5.47;;;3.78;;
69240;SDS011;56352;55.750;13.198;2023-05-10T06:01:17;4.30;;;3.22;;
69240;SDS011;56352;55.750;13.198;2023-05-10T06:03:44;7.60;;;3.00;;
69240;SDS011;56352;55.750;13.198;2023-05-10T06:06:11;4.22;;;3.00;;
69240;SDS011;56352;55.750;13.198;2023-05-10T06:08:38;4.90;;;3.17;;
69240;SDS011;56352;55.750;13.198;2023-05-10T06:11:05;6.10;;;2.85;;
69240;SDS011;56352;55.750;13.198;2023-05-10T06:13:32;5.55;;;3.25;;
69240;SDS011;56352;55.750;13.198;2023-05-10T06:15:59;8.07;;;3.10;;
69240;SDS011;56352;55.750;13.198;2023-05-10T06:18:26;6.05;;;3.47;;
69240;SDS011;56352;55.750;13.198;2023-05-10T06:20:52;4.95;;;3.15;;
69240;SDS011;56352;55.750;13.198;2023-05-10T06:23:19;4.43;;;3.28;;
69240;SDS011;56352;55.750;13.198;2023-05-10T06:25:45;4.15;;;2.97;;
69240;SDS011;56352;55.750;13.198;2023-05-10T06:28:12;5.07;;;3.20;;
69240;SDS011;56352;55.750;13.198;2023-05-10T06:30:38;7.65;;;3.30;;
69240;SDS011;56352;55.750;13.198;2023-05-10T06:33:05;6.75;;;3.25;;
69240;SDS011;56352;55.750;13.198;2023-05-10T06:35:32;5.43;;;3.03;;
69240;SDS011;56352;55.750;13.198;2023-05-10T06:37:59;3.45;;;2.75;;
69240;SDS011;56352;55.750;13.198;2023-05-10T06:40:26;5.07;;;3.20;;
69240;SDS011;56352;55.750;13.198;2023-05-10T06:42:52;4.75;;;3.22;;
69240;SDS011;56352;55.750;13.198;2023-05-10T06:45:19;3.92;;;3.40;;
69240;SDS011;56352;55.750;13.198;2023-05-10T06:47:46;5.18;;;3.30;;
69240;SDS011;56352;55.750;13.198;2023-05-10T06:50:13;5.43;;;3.00;;
69240;SDS011;56352;55.750;13.198;2023-05-10T06:52:39;4.65;;;3.00;;
69240;SDS011;56352;55.750;13.198;2023-05-10T06:55:06;4.28;;;2.90;;
69240;SDS011;56352;55.750;13.198;2023-05-10T06:57:34;6.57;;;3.40;;
69240;SDS011;56352;55.750;13.198;2023-05-10T07:00:01;3.47;;;3.10;;
69240;SDS011;56352;55.750;13.198;2023-05-10T07:02:27;6.53;;;3.30;;
69240;SDS011;56352;55.750;13.198;2023-05-10T07:04:54;5.07;;;3.17;;
69240;SDS011;56352;55.750;13.198;2023-05-10T07:07:21;4.68;;;3.03;;
69240;SDS011;56352;55.750;13.198;2023-05-10T07:09:48;6.80;;;2.95;;
69240;SDS011;56352;55.750;13.198;2023-05-10T07:12:16;6.47;;;3.07;;
69240;SDS011;56352;55.750;13.198;2023-05-10T07:14:42;4.68;;;2.83;;
69240;SDS011;56352;55.750;13.198;2023-05-10T07:17:09;5.70;;;2.95;;
69240;SDS011;56352;55.750;13.198;2023-05-10T07:19:36;5.70;;;3.25;;
69240;SDS011;56352;55.750;13.198;2023-05-10T07:22:02;3.80;;;3.22;;
69240;SDS011;56352;55.750;13.198;2023-05-10T07:24:29;4.13;;;2.92;;
69240;SDS011;56352;55.750;13.198;2023-05-10T07:26:57;6.35;;;3.08;;
69240;SDS011;56352;55.750;13.198;2023-05-10T07:29:24;3.30;;;2.80;;
69240;SDS011;56352;55.750;13.198;2023-05-10T07:31:50;5.82;;;3.38;;
69240;SDS011;56352;55.750;13.198;2023-05-10T07:34:17;5.05;;;2.90;;
69240;SDS011;56352;55.750;13.198;2023-05-10T07:36:44;4.93;;;3.08;;
69240;SDS011;56352;55.750;13.198;2023-05-10T07:39:10;7.20;;;3.00;;
69240;SDS011;56352;55.750;13.198;2023-05-10T07:41:46;6.75;;;3.30;;
69240;SDS011;56352;55.750;13.198;2023-05-10T07:44:13;5.57;;;3.20;;
69240;SDS011;56352;55.750;13.198;2023-05-10T07:46:39;4.03;;;3.03;;
69240;SDS011;56352;55.750;13.198;2023-05-10T07:49:06;5.13;;;3.22;;
69240;SDS011;56352;55.750;13.198;2023-05-10T07:51:33;4.28;;;3.00;;
69240;SDS011;56352;55.750;13.198;2023-05-10T07:54:00;8.50;;;3.20;;
69240;SDS011;56352;55.750;13.198;2023-05-10T07:56:27;6.28;;;3.17;;
69240;SDS011;56352;55.750;13.198;2023-05-10T07:58:56;7.50;;;3.50;;
69240;SDS011;56352;55.750;13.198;2023-05-10T08:01:22;5.22;;;3.33;;
69240;SDS011;56352;55.750;13.198;2023-05-10T08:03:48;5.03;;;3.45;;
69240;SDS011;56352;55.750;13.198;2023-05-10T08:08:45;4.25;;;2.95;;
69240;SDS011;56352;55.750;13.198;2023-05-10T08:11:18;6.00;;;3.03;;
69240;SDS011;56352;55.750;13.198;2023-05-10T08:13:45;6.40;;;3.25;;
69240;SDS011;56352;55.750;13.198;2023-05-10T08:16:11;5.10;;;3.05;;
69240;SDS011;56352;55.750;13.198;2023-05-10T08:18:38;4.00;;;3.00;;
69240;SDS011;56352;55.750;13.198;2023-05-10T08:21:05;4.10;;;2.97;;
69240;SDS011;56352;55.750;13.198;2023-05-10T08:23:32;4.00;;;3.33;;
69240;SDS011;56352;55.750;13.198;2023-05-10T08:25:58;4.22;;;3.25;;
69240;SDS011;56352;55.750;13.198;2023-05-10T08:28:25;4.13;;;2.72;;
69240;SDS011;56352;55.750;13.198;2023-05-10T08:30:51;7.95;;;3.45;;
69240;SDS011;56352;55.750;13.198;2023-05-10T08:33:18;4.88;;;3.15;;
69240;SDS011;56352;55.750;13.198;2023-05-10T08:35:45;7.18;;;3.03;;
69240;SDS011;56352;55.750;13.198;2023-05-10T08:38:11;3.83;;;3.05;;
69240;SDS011;56352;55.750;13.198;2023-05-10T08:40:42;2.85;;;2.55;;
69240;SDS011;56352;55.750;13.198;2023-05-10T08:43:12;4.68;;;3.20;;
69240;SDS011;56352;55.750;13.198;2023-05-10T08:45:41;4.43;;;3.38;;
69240;SDS011;56352;55.750;13.198;2023-05-10T08:48:10;4.13;;;2.88;;
69240;SDS011;56352;55.750;13.198;2023-05-10T08:50:38;5.90;;;3.03;;
69240;SDS011;56352;55.750;13.198;2023-05-10T08:53:06;9.10;;;3.33;;
69240;SDS011;56352;55.750;13.198;2023-05-10T08:55:35;3.47;;;2.92;;
69240;SDS011;56352;55.750;13.198;2023-05-10T08:58:05;5.68;;;3.58;;
69240;SDS011;56352;55.750;13.198;2023-05-10T09:00:32;6.63;;;3.30;;
69240;SDS011;56352;55.750;13.198;2023-05-10T09:02:59;6.28;;;3.47;;
69240;SDS011;56352;55.750;13.198;2023-05-10T09:05:26;4.45;;;2.83;;
69240;SDS011;56352;55.750;13.198;2023-05-10T09:07:53;5.03;;;3.10;;
69240;SDS011;56352;55.750;13.198;2023-05-10T09:10:20;4.05;;;2.97;;
69240;SDS011;56352;55.750;13.198;2023-05-10T09:12:50;3.35;;;2.70;;
69240;SDS011;56352;55.750;13.198;2023-05-10T09:15:16;3.90;;;2.97;;
69240;SDS011;56352;55.750;13.198;2023-05-10T09:17:45;4.07;;;2.60;;
69240;SDS011;56352;55.750;13.198;2023-05-10T09:20:12;6.43;;;2.95;;
69240;SDS011;56352;55.750;13.198;2023-05-10T09:22:38;5.70;;;2.58;;
69240;SDS011;56352;55.750;13.198;2023-05-10T09:25:07;5.60;;;2.73;;
69240;SDS011;56352;55.750;13.198;2023-05-10T09:27:34;4.07;;;2.45;;
69240;SDS011;56352;55.750;13.198;2023-05-10T09:30:00;3.80;;;2.83;;
69240;SDS011;56352;55.750;13.198;2023-05-10T09:32:37;7.25;;;2.58;;
69240;SDS011;56352;55.750;13.198;2023-05-10T09:35:08;4.13;;;2.78;;
69240;SDS011;56352;55.750;13.198;2023-05-10T09:37:35;4.53;;;2.70;;
69240;SDS011;56352;55.750;13.198;2023-05-10T09:40:05;4.13;;;2.92;;
69240;SDS011;56352;55.750;13.198;2023-05-10T09:42:34;4.03;;;3.10;;
69240;SDS011;56352;55.750;13.198;2023-05-10T09:45:03;4.95;;;2.90;;
69240;SDS011;56352;55.750;13.198;2023-05-10T09:47:34;6.93;;;2.85;;
69240;SDS011;56352;55.750;13.198;2023-05-10T09:50:01;4.13;;;2.58;;
69240;SDS011;56352;55.750;13.198;2023-05-10T09:52:31;6.30;;;2.70;;
69240;SDS011;56352;55.750;13.198;2023-05-10T09:55:11;3.70;;;2.90;;
69240;SDS011;56352;55.750;13.198;2023-05-10T09:57:38;4.47;;;2.83;;
69240;SDS011;56352;55.750;13.198;2023-05-10T10:00:05;5.82;;;3.17;;
69240;SDS011;56352;55.750;13.198;2023-05-10T10:02:32;5.77;;;3.50;;
69240;SDS011;56352;55.750;13.198;2023-05-10T10:05:02;3.55;;;2.90;;
69240;SDS011;56352;55.750;13.198;2023-05-10T10:07:30;5.07;;;3.13;;
69240;SDS011;56352;55.750;13.198;2023-05-10T10:09:56;3.75;;;2.97;;
69240;SDS011;56352;55.750;13.198;2023-05-10T10:12:24;3.25;;;2.53;;
69240;SDS011;56352;55.750;13.198;2023-05-10T10:14:51;6.53;;;2.50;;
69240;SDS011;56352;55.750;13.198;2023-05-10T10:17:18;4.60;;;2.60;;
69240;SDS011;56352;55.750;13.198;2023-05-10T10:19:46;4.32;;;2.70;;
69240;SDS011;56352;55.750;13.198;2023-05-10T10:22:14;6.60;;;2.70;;
69240;SDS011;56352;55.750;13.198;2023-05-10T10:24:41;4.43;;;2.80;;
69240;SDS011;56352;55.750;13.198;2023-05-10T10:27:18;4.45;;;2.63;;
69240;SDS011;56352;55.750;13.198;2023-05-10T10:29:52;5.00;;;2.40;;
69240;SDS011;56352;55.750;13.198;2023-05-10T10:32:30;5.20;;;2.63;;
69240;SDS011;56352;55.750;13.198;2023-05-10T10:35:02;4.45;;;2.55;;
69240;SDS011;56352;55.750;13.198;2023-05-10T10:37:44;5.10;;;2.55;;
69240;SDS011;56352;55.750;13.198;2023-05-10T10:42:53;6.72;;;2.60;;
69240;SDS011;56352;55.750;13.198;2023-05-10T10:45:20;3.95;;;2.80;;
69240;SDS011;56352;55.750;13.198;2023-05-10T10:47:47;3.50;;;2.40;;
69240;SDS011;56352;55.750;13.198;2023-05-10T10:50:14;3.38;;;2.20;;
69240;SDS011;56352;55.750;13.198;2023-05-10T10:52:42;3.13;;;2.55;;
69240;SDS011;56352;55.750;13.198;2023-05-10T10:55:10;4.50;;;2.45;;
69240;SDS011;56352;55.750;13.198;2023-05-10T11:00:23;4.05;;;2.20;;
69240;SDS011;56352;55.750;13.198;2023-05-10T11:07:51;5.73;;;2.53;;
69240;SDS011;56352;55.750;13.198;2023-05-10T11:10:21;3.53;;;2.30;;
69240;SDS011;56352;55.750;13.198;2023-05-10T11:13:06;3.72;;;2.50;;
69240;SDS011;56352;55.750;13.198;2023-05-10T11:15:39;3.00;;;2.00;;
69240;SDS011;56352;55.750;13.198;2023-05-10T11:18:19;3.72;;;2.53;;
69240;SDS011;56352;55.750;13.198;2023-05-10T11:20:54;3.85;;;2.63;;
69240;SDS011;56352;55.750;13.198;2023-05-10T11:23:21;3.45;;;2.30;;
69240;SDS011;56352;55.750;13.198;2023-05-10T11:25:49;7.40;;;2.70;;
69240;SDS011;56352;55.750;13.198;2023-05-10T11:28:17;3.80;;;2.20;;
69240;SDS011;56352;55.750;13.198;2023-05-10T11:30:43;2.97;;;2.10;;
69240;SDS011;56352;55.750;13.198;2023-05-10T11:33:14;2.03;;;1.77;;
69240;SDS011;56352;55.750;13.198;2023-05-10T11:35:41;3.92;;;1.90;;
69240;SDS011;56352;55.750;13.198;2023-05-10T11:38:12;3.10;;;2.05;;
69240;SDS011;56352;55.750;13.198;2023-05-10T11:40:40;2.85;;;2.15;;
69240;SDS011;56352;55.750;13.198;2023-05-10T11:43:06;4.32;;;1.90;;
69240;SDS011;56352;55.750;13.198;2023-05-10T11:48:02;4.35;;;2.00;;
69240;SDS011;56352;55.750;13.198;2023-05-10T11:50:28;6.93;;;2.22;;
69240;SDS011;56352;55.750;13.198;2023-05-10T11:52:56;4.00;;;1.98;;
69240;SDS011;56352;55.750;13.198;2023-05-10T11:55:24;3.67;;;1.63;;
69240;SDS011;56352;55.750;13.198;2023-05-10T11:57:51;4.50;;;1.80;;
69240;SDS011;56352;55.750;13.198;2023-05-10T12:00:19;5.13;;;1.90;;
69240;SDS011;56352;55.750;13.198;2023-05-10T12:02:46;3.55;;;1.98;;
69240;SDS011;56352;55.750;13.198;2023-05-10T12:05:13;2.57;;;1.50;;
69240;SDS011;56352;55.750;13.198;2023-05-10T12:07:40;2.42;;;1.80;;
69240;SDS011;56352;55.750;13.198;2023-05-10T12:10:07;4.90;;;2.50;;
69240;SDS011;56352;55.750;13.198;2023-05-10T12:12:40;2.85;;;2.05;;
69240;SDS011;56352;55.750;13.198;2023-05-10T12:15:12;3.55;;;2.20;;
69240;SDS011;56352;55.750;13.198;2023-05-10T12:17:39;8.50;;;1.92;;
69240;SDS011;56352;55.750;13.198;2023-05-10T12:22:54;4.13;;;2.25;;
69240;SDS011;56352;55.750;13.198;2023-05-10T12:25:23;3.80;;;2.00;;
69240;SDS011;56352;55.750;13.198;2023-05-10T12:27:57;3.20;;;2.08;;
69240;SDS011;56352;55.750;13.198;2023-05-10T12:30:25;3.55;;;2.03;;
69240;SDS011;56352;55.750;13.198;2023-05-10T12:32:52;2.30;;;2.10;;
69240;SDS011;56352;55.750;13.198;2023-05-10T12:35:19;2.00;;;1.83;;
69240;SDS011;56352;55.750;13.198;2023-05-10T12:37:50;2.58;;;1.90;;
69240;SDS011;56352;55.750;13.198;2023-05-10T12:40:17;3.65;;;2.00;;
69240;SDS011;56352;55.750;13.198;2023-05-10T12:42:44;2.53;;;1.98;;
69240;SDS011;56352;55.750;13.198;2023-05-10T12:45:13;2.97;;;2.05;;
69240;SDS011;56352;55.750;13.198;2023-05-10T12:47:40;3.92;;;1.90;;
69240;SDS011;56352;55.750;13.198;2023-05-10T12:50:09;4.00;;;2.10;;
69240;SDS011;56352;55.750;13.198;2023-05-10T12:55:06;2.40;;;1.98;;
69240;SDS011;56352;55.750;13.198;2023-05-10T12:57:33;2.75;;;1.95;;
69240;SDS011;56352;55.750;13.198;2023-05-10T12:59:59;3.83;;;1.83;;
69240;SDS011;56352;55.750;13.198;2023-05-10T13:02:26;1.55;;;1.45;;
69240;SDS011;56352;55.750;13.198;2023-05-10T13:04:52;2.83;;;1.92;;
69240;SDS011;56352;55.750;13.198;2023-05-10T13:07:19;7.47;;;2.40;;
69240;SDS011;56352;55.750;13.198;2023-05-10T13:09:46;6.28;;;2.28;;
69240;SDS011;56352;55.750;13.198;2023-05-10T13:12:13;3.38;;;2.17;;
69240;SDS011;56352;55.750;13.198;2023-05-10T13:14:39;3.50;;;2.13;;
69240;SDS011;56352;55.750;13.198;2023-05-10T13:17:06;3.53;;;2.10;;
69240;SDS011;56352;55.750;13.198;2023-05-10T13:19:33;10.25;;;2.47;;
69240;SDS011;56352;55.750;13.198;2023-05-10T13:22:00;3.47;;;2.28;;
69240;SDS011;56352;55.750;13.198;2023-05-10T13:24:26;4.22;;;2.40;;
69240;SDS011;56352;55.750;13.198;2023-05-10T13:26:53;6.68;;;2.15;;
69240;SDS011;56352;55.750;13.198;2023-05-10T13:29:19;3.47;;;2.50;;
69240;SDS011;56352;55.750;13.198;2023-05-10T13:31:47;4.03;;;2.08;;
69240;SDS011;56352;55.750;13.198;2023-05-10T13:34:14;2.10;;;1.90;;
69240;SDS011;56352;55.750;13.198;2023-05-10T13:36:40;3.05;;;2.13;;
69240;SDS011;56352;55.750;13.198;2023-05-10T13:39:07;3.35;;;1.90;;
69240;SDS011;56352;55.750;13.198;2023-05-10T13:41:35;5.55;;;1.90;;
69240;SDS011;56352;55.750;13.198;2023-05-10T13:44:02;2.72;;;2.10;;
69240;SDS011;56352;55.750;13.198;2023-05-10T13:46:29;3.47;;;2.22;;
69240;SDS011;56352;55.750;13.198;2023-05-10T13:48:56;2.85;;;2.20;;
69240;SDS011;56352;55.750;13.198;2023-05-10T13:51:23;2.90;;;2.17;;
69240;SDS011;56352;55.750;13.198;2023-05-10T13:53:49;4.30;;;2.55;;
69240;SDS011;56352;55.750;13.198;2023-05-10T13:56:16;3.55;;;2.28;;
69240;SDS011;56352;55.750;13.198;2023-05-10T13:58:42;2.58;;;2.20;;
69240;SDS011;56352;55.750;13.198;2023-05-10T14:01:09;2.88;;;2.17;;
69240;SDS011;56352;55.750;13.198;2023-05-10T14:03:36;5.03;;;2.13;;
69240;SDS011;56352;55.750;13.198;2023-05-10T14:06:03;3.97;;;2.65;;
69240;SDS011;56352;55.750;13.198;2023-05-10T14:08:29;3.13;;;2.00;;
69240;SDS011;56352;55.750;13.198;2023-05-10T14:10:56;3.70;;;2.10;;
69240;SDS011;56352;55.750;13.198;2023-05-10T14:15:50;2.58;;;2.30;;
69240;SDS011;56352;55.750;13.198;2023-05-10T14:18:16;3.10;;;2.20;;
69240;SDS011;56352;55.750;13.198;2023-05-10T14:20:43;4.45;;;2.17;;
69240;SDS011;56352;55.750;13.198;2023-05-10T14:23:11;3.50;;;1.92;;
69240;SDS011;56352;55.750;13.198;2023-05-10T14:28:05;3.90;;;2.38;;
69240;SDS011;56352;55.750;13.198;2023-05-10T14:30:31;3.83;;;1.97;;
69240;SDS011;56352;55.750;13.198;2023-05-10T14:35:27;1.92;;;1.83;;
69240;SDS011;56352;55.750;13.198;2023-05-10T14:37:54;2.58;;;1.83;;
69240;SDS011;56352;55.750;13.198;2023-05-10T14:40:21;5.63;;;1.80;;
69240;SDS011;56352;55.750;13.198;2023-05-10T14:42:49;3.58;;;1.90;;
69240;SDS011;56352;55.750;13.198;2023-05-10T14:45:16;2.78;;;1.80;;
69240;SDS011;56352;55.750;13.198;2023-05-10T14:47:43;4.18;;;1.90;;
69240;SDS011;56352;55.750;13.198;2023-05-10T14:50:10;2.83;;;1.80;;
69240;SDS011;56352;55.750;13.198;2023-05-10T14:52:46;4.88;;;2.42;;
69240;SDS011;56352;55.750;13.198;2023-05-10T14:55:13;3.20;;;2.15;;
69240;SDS011;56352;55.750;13.198;2023-05-10T14:57:41;3.63;;;1.80;;
69240;SDS011;56352;55.750;13.198;2023-05-10T15:00:08;2.85;;;2.13;;
69240;SDS011;56352;55.750;13.198;2023-05-10T15:02:35;2.72;;;1.77;;
69240;SDS011;56352;55.750;13.198;2023-05-10T15:05:02;3.63;;;1.95;;
69240;SDS011;56352;55.750;13.198;2023-05-10T15:07:29;3.53;;;1.85;;
69240;SDS011;56352;55.750;13.198;2023-05-10T15:09:57;5.10;;;1.95;;
69240;SDS011;56352;55.750;13.198;2023-05-10T15:12:24;6.38;;;2.00;;
69240;SDS011;56352;55.750;13.198;2023-05-10T15:14:50;4.55;;;2.22;;
69240;SDS011;56352;55.750;13.198;2023-05-10T15:17:17;3.92;;;2.10;;
69240;SDS011;56352;55.750;13.198;2023-05-10T15:19:43;5.60;;;2.10;;
69240;SDS011;56352;55.750;13.198;2023-05-10T15:22:10;4.93;;;2.20;;
69240;SDS011;56352;55.750;13.198;2023-05-10T15:24:36;6.28;;;2.38;;